메인 페이지
METAR-TAF:

METAR-TAF

공항 :

첸나이 국제공항

첸나이, 인도

위도: 13-00N, 경도: 080-11E, 고도: 10m

현재 날씨관측

예보는 6 시간 19분 전, 17:00시(UTC)에 발표되었습니다.
7kt
온도 30°C
습도 84%
기압 1008 hPa
시정: 6000m
고도 2000ft 상공 구름 조금

METAR: VOMM 181700Z 19007KT 6000 FEW020 30/27 Q1008 NOSIG

시각: 04:49 (23:19 UTC)

예보

예보는 12 시간 19분 전, 11:00시(UTC)에 발표되었습니다.
예보 대상 시간: 18일 12시부터 19일 18시까지 (UTC)
남남동10kt
시정: 6000m
고도 2000ft 상공 구름 조금
고도 10000ft 상공 구름 보통
전환 중
18일 21시부터 18일 22시까지 (UTC)
남서10kt
시정: 4000m
박무
전환 중
19일 03시부터 19일 04시까지 (UTC)
시정: 6000m
전환 중
19일 06시부터 19일 07시까지 (UTC)
남남동10kt

TAF: VOMM 181100Z 1812/1918 16010KT 6000 FEW020 SCT100 BECMG 1821/1822 23010KT 4000 BR BECMG 1903/1904 6000 BECMG 1906/1907 16010KT

4,000개 이상의 공항 관측 자료 및 예보 (METAR 및 TAF 보고).

지도상에서 검색 가능한 기상관측소가 노란 점과 빨간 점으로 표시되어 있습니다.

기상관측소 명을 보려면 표시 위로 마우스를 이동하세요.

날씨 관측과 예보를 보려면 클릭하세요.

지도 변경 : 확대하려면 엑스 표시가 있는 녹색 버튼, 축소하려면 빼기 표시가 있는 녹색 버튼, 다음 페이지의 지도를 보려면 녹색 화살표를 클릭하세요.


METAR-TAF: